Airfield :
LOGIN :

Register | Disclaimer

   EN    FR    IT 

 










Legend :    VFR   Marginal VFR   IFR   Intensive IFR   Very Intensive IFR
Visi :
Ceiling :
>= 8 km
>= 3000ft
5 to 8 km
1000 to 3000 ft
1500m to 5 km
500 to 1000 ft
800 to 1500m
200 to 500 ft
< 800m
< 200 ft
Symbols :   Thunderstorms  Fog  Heavy snow  Heavy precipitations  Wind > 20 kt
SIGMETs :     Misc.  Thunderstorms  Icing  Turbulence  Mountain Waves  Volcanic Ashes






- Airport Elevation : 1411 ft
- IATA code : GVA


LSGG - Genève Cointrin

CURRENT METAR :
  • 021350Z VRB02KT 9999 SCT042 10/M01 Q1031 NOSIG

EXPIRED METARs :
  • 021320Z VRB04KT 9999 SCT040 09/M02 Q1031 NOSIG
  • 021250Z 11005KT 060V150 9999 SCT039 09/M01 Q1031 NOSIG
  • 021220Z 09005KT 040V140 9999 FEW040 08/M02 Q1031 NOSIG
  • 021150Z 09005KT 050V130 9999 FEW039 08/M01 Q1032 NOSIG
  • 021120Z 06004KT 020V130 9999 FEW050 07/M01 Q1032 NOSIG

TAF TAF LSGG
Valid from the 02 at 12:00 until the 03 at 18:00 UTC


021125Z 0212/0318 VRB03KT 9999 FEW040 SCT050 TX09/0215Z TNM01/0306Z TX08/0315Z
ATIS : +41 22 417 40 81



MET'MAP, your aeronautical weather chart ! - Copyright ORBIFLY December 2007 - Disclaimer

ORBIFLY MET'MAP TEAM :

Programming & Development : Alexandra Zaïnal
Original concept : Baudouin d'Aumeries
Technical & hardware support : Manuel Goepfert
Assistance : Marc-Olivier Méhu




SOURCES & CREDITS :

   NOAA